Time;durP1;ratioP1;P1;durP2;ratioP2;P2;SDS_P1;SDS_P2;PMS_P1;PMS_P2;Temp;Humidity;BMP_temperature;BMP_pressure;BME280_temperature;BME280_humidity;BME280_pressure;Samples;Min_cycle;Max_cycle;Signal;HPM_P1;HPM_P2
2022/03/16 00:01:47;;;;;;;;;;;6.10;88.60;;;;;;5073966;28;19974;-78
2022/03/16 00:04:14;;;;;;;;;;;6.10;88.70;;;;;;5057150;28;19924;-78
2022/03/16 00:06:41;;;;;;;;;;;6.00;89.10;;;;;;5064777;28;19928;-75
2022/03/16 00:09:08;;;;;;;;;;;6.00;88.60;;;;;;5076847;28;19950;-76
2022/03/16 00:11:34;;;;;;;;;;;5.90;88.10;;;;;;5073297;28;19924;-78
2022/03/16 00:14:01;;;;;;;;;;;5.90;87.80;;;;;;5078868;28;19928;-76
2022/03/16 00:16:28;;;;;;;;;;;5.80;87.80;;;;;;5075088;28;19963;-77
2022/03/16 00:18:55;;;;;;;;;;;5.80;87.40;;;;;;5075489;28;19928;-77
2022/03/16 00:21:21;;;;;;;;;;;5.80;87.40;;;;;;5085418;28;19934;-76
2022/03/16 00:23:48;;;;;;;;;;;5.70;87.20;;;;;;5069652;28;20241;-77
2022/03/16 00:26:15;;;;;;;;;;;5.70;87.20;;;;;;5067884;28;19929;-76
2022/03/16 00:28:42;;;;;;;;;;;5.60;87.90;;;;;;5060707;28;19951;-77
2022/03/16 00:31:09;;;;;;;;;;;5.60;87.50;;;;;;5056995;28;19974;-76
2022/03/16 00:33:36;;;;;;;;;;;5.60;87.90;;;;;;5063506;28;19975;-76
2022/03/16 00:36:03;;;;;;;;;;;5.50;88.10;;;;;;5055003;28;20401;-77
2022/03/16 00:38:29;;;;;;;;;;;5.40;87.80;;;;;;5069582;28;19978;-75
2022/03/16 00:40:56;;;;;;;;;;;5.30;87.80;;;;;;5070971;28;19925;-75
2022/03/16 00:43:23;;;;;;;;;;;5.20;88.50;;;;;;5074181;28;19958;-77
2022/03/16 00:45:50;;;;;;;;;;;5.20;89.00;;;;;;5066971;28;19931;-77
2022/03/16 00:48:17;;;;;;;;;;;5.00;88.60;;;;;;5071123;28;19924;-76
2022/03/16 00:50:44;;;;;;;;;;;5.00;89.10;;;;;;5065793;28;20200;-77
2022/03/16 00:53:10;;;;;;;;;;;5.00;90.00;;;;;;5070000;28;20384;-77
2022/03/16 00:55:37;;;;;;;;;;;4.90;89.20;;;;;;5056953;28;19924;-77
2022/03/16 00:58:04;;;;;;;;;;;4.90;89.50;;;;;;5079965;28;19939;-77
2022/03/16 01:00:31;;;;;;;;;;;4.80;89.40;;;;;;5072009;28;19964;-74
2022/03/16 01:02:57;;;;;;;;;;;4.80;89.60;;;;;;5067109;28;19932;-76
2022/03/16 01:05:24;;;;;;;;;;;4.70;90.00;;;;;;5060898;28;19967;-76
2022/03/16 01:07:51;;;;;;;;;;;4.70;90.70;;;;;;5066907;28;19925;-75
2022/03/16 01:10:18;;;;;;;;;;;4.70;90.40;;;;;;5076813;28;19932;-77
2022/03/16 01:12:45;;;;;;;;;;;4.70;90.20;;;;;;5066384;28;20445;-76
2022/03/16 01:15:12;;;;;;;;;;;4.70;90.20;;;;;;5062720;28;19951;-78
2022/03/16 01:17:38;;;;;;;;;;;4.70;90.00;;;;;;5066913;28;20391;-77
2022/03/16 01:20:06;;;;;;;;;;;4.70;90.20;;;;;;5074105;28;19928;-77
2022/03/16 01:22:33;;;;;;;;;;;4.60;89.70;;;;;;5077122;28;20396;-75
2022/03/16 01:24:59;;;;;;;;;;;4.60;89.60;;;;;;5076844;28;19958;-77
2022/03/16 01:27:26;;;;;;;;;;;4.60;89.60;;;;;;5070175;28;19952;-77
2022/03/16 01:29:53;;;;;;;;;;;4.60;89.60;;;;;;5068814;28;19968;-74
2022/03/16 01:32:19;;;;;;;;;;;4.50;89.50;;;;;;5069717;28;19968;-75
2022/03/16 01:34:46;;;;;;;;;;;4.60;90.00;;;;;;5051065;28;20277;-77
2022/03/16 01:37:13;;;;;;;;;;;4.50;89.20;;;;;;5008238;28;1835295;-77
2022/03/16 01:39:40;;;;;;;;;;;4.50;89.70;;;;;;5075984;28;19934;-74
2022/03/16 01:42:07;;;;;;;;;;;4.40;90.00;;;;;;5075808;28;19947;-76
2022/03/16 01:44:49;;;;;;;;;;;4.40;89.70;;;;;;5066595;28;19924;-76
2022/03/16 01:47:17;;;;;;;;;;;4.30;89.70;;;;;;5061821;28;20015;-77
2022/03/16 01:49:44;;;;;;;;;;;4.30;89.60;;;;;;5067538;28;19932;-77
2022/03/16 01:52:13;;;;;;;;;;;4.20;89.80;;;;;;5074060;28;19928;-75
2022/03/16 01:54:40;;;;;;;;;;;4.20;89.60;;;;;;5064045;28;20331;-76
2022/03/16 01:57:08;;;;;;;;;;;4.10;89.50;;;;;;5064133;28;19936;-77
2022/03/16 01:59:35;;;;;;;;;;;4.00;89.90;;;;;;5067229;28;20457;-76
2022/03/16 02:02:03;;;;;;;;;;;4.00;89.40;;;;;;5073327;28;19951;-76
2022/03/16 02:04:29;;;;;;;;;;;4.00;89.00;;;;;;5066820;28;19925;-76
2022/03/16 02:07:00;;;;;;;;;;;3.90;89.30;;;;;;5064192;28;20507;-76
2022/03/16 02:09:27;;;;;;;;;;;3.90;89.70;;;;;;5068020;28;20392;-75
2022/03/16 02:11:53;;;;;;;;;;;3.90;89.40;;;;;;5071637;28;20364;-76
2022/03/16 02:14:20;;;;;;;;;;;3.90;89.10;;;;;;5070605;28;19928;-76
2022/03/16 02:16:47;;;;;;;;;;;3.80;88.70;;;;;;5058294;28;20373;-75
2022/03/16 02:19:15;;;;;;;;;;;3.80;88.80;;;;;;5075606;28;19928;-74
2022/03/16 02:21:45;;;;;;;;;;;3.80;89.10;;;;;;5071594;28;19971;-77
2022/03/16 02:24:12;;;;;;;;;;;3.70;89.10;;;;;;5061362;28;19999;-77
2022/03/16 02:26:39;;;;;;;;;;;3.60;89.20;;;;;;5065573;28;19967;-76
2022/03/16 02:29:06;;;;;;;;;;;3.50;88.80;;;;;;5068153;28;20456;-77
2022/03/16 02:31:33;;;;;;;;;;;3.50;88.80;;;;;;5065831;28;20011;-77
2022/03/16 02:34:00;;;;;;;;;;;3.40;89.00;;;;;;5065925;28;19925;-76
2022/03/16 02:36:27;;;;;;;;;;;3.30;89.60;;;;;;5080875;28;19925;-77
2022/03/16 02:38:53;;;;;;;;;;;3.30;90.30;;;;;;5072744;28;19959;-74
2022/03/16 02:41:20;;;;;;;;;;;3.20;90.80;;;;;;5069761;28;20402;-76
2022/03/16 02:43:47;;;;;;;;;;;3.20;91.00;;;;;;5051094;28;19925;-75
2022/03/16 02:46:13;;;;;;;;;;;3.20;90.80;;;;;;5059578;28;19929;-76
2022/03/16 02:48:40;;;;;;;;;;;3.20;90.60;;;;;;5071603;28;19924;-76
2022/03/16 02:51:07;;;;;;;;;;;3.20;90.50;;;;;;5079088;28;19928;-75
2022/03/16 02:53:34;;;;;;;;;;;3.20;90.60;;;;;;5073227;28;20366;-74
2022/03/16 02:56:00;;;;;;;;;;;3.20;90.40;;;;;;5070507;28;19925;-76
2022/03/16 02:58:27;;;;;;;;;;;3.20;91.00;;;;;;5069948;28;20273;-76
2022/03/16 03:00:54;;;;;;;;;;;3.20;91.70;;;;;;5063260;28;19957;-77
2022/03/16 03:03:22;;;;;;;;;;;3.30;91.20;;;;;;5057596;28;19924;-76
2022/03/16 03:05:48;;;;;;;;;;;3.30;91.20;;;;;;5052624;28;19925;-76
2022/03/16 03:08:15;;;;;;;;;;;3.30;92.00;;;;;;5050841;28;19937;-76
2022/03/16 03:10:42;;;;;;;;;;;3.40;91.60;;;;;;5057952;28;19924;-76
2022/03/16 03:13:09;;;;;;;;;;;3.40;91.70;;;;;;5068715;28;20296;-77
2022/03/16 03:15:35;;;;;;;;;;;3.40;91.10;;;;;;5053956;28;20351;-75
2022/03/16 03:18:02;;;;;;;;;;;3.30;90.90;;;;;;5066485;28;19929;-76
2022/03/16 03:20:29;;;;;;;;;;;3.30;90.80;;;;;;5077030;28;19925;-77
2022/03/16 03:22:56;;;;;;;;;;;3.30;91.30;;;;;;5070858;28;20434;-76
2022/03/16 03:25:23;;;;;;;;;;;3.20;91.50;;;;;;5067998;28;19971;-76
2022/03/16 03:27:49;;;;;;;;;;;3.20;91.20;;;;;;5061770;28;19928;-75
2022/03/16 03:30:16;;;;;;;;;;;3.20;91.00;;;;;;5068355;28;19924;-76
2022/03/16 03:32:43;;;;;;;;;;;3.20;91.00;;;;;;5070865;28;19956;-76
2022/03/16 03:35:10;;;;;;;;;;;3.20;91.20;;;;;;5076520;28;19959;-77
2022/03/16 03:37:37;;;;;;;;;;;3.10;91.20;;;;;;5054024;28;19925;-77
2022/03/16 03:40:04;;;;;;;;;;;3.10;91.10;;;;;;5052264;28;19925;-77
2022/03/16 03:42:31;;;;;;;;;;;3.00;91.20;;;;;;5064524;28;19925;-76
2022/03/16 03:44:58;;;;;;;;;;;3.00;91.90;;;;;;5060326;28;19946;-76
2022/03/16 03:47:25;;;;;;;;;;;2.90;92.30;;;;;;5072487;28;19928;-75
2022/03/16 03:49:51;;;;;;;;;;;2.90;91.90;;;;;;5071151;28;19932;-77
2022/03/16 03:52:18;;;;;;;;;;;3.00;91.90;;;;;;5070470;28;19962;-76
2022/03/16 03:54:45;;;;;;;;;;;3.00;92.10;;;;;;5072688;28;19932;-76
2022/03/16 03:57:12;;;;;;;;;;;3.00;92.20;;;;;;5073341;28;20407;-76
2022/03/16 03:59:38;;;;;;;;;;;3.00;92.50;;;;;;5068892;28;19924;-77
2022/03/16 04:02:05;;;;;;;;;;;3.00;92.30;;;;;;5052059;28;19929;-75
2022/03/16 04:04:32;;;;;;;;;;;3.00;91.90;;;;;;5071407;28;20423;-77
2022/03/16 04:06:59;;;;;;;;;;;3.00;91.80;;;;;;5064196;28;19932;-77
2022/03/16 04:09:26;;;;;;;;;;;3.00;91.60;;;;;;5063844;28;19960;-77
2022/03/16 04:11:53;;;;;;;;;;;3.00;91.50;;;;;;5067208;28;19932;-76
2022/03/16 04:14:20;;;;;;;;;;;3.00;91.60;;;;;;5051791;28;19978;-77
2022/03/16 04:16:46;;;;;;;;;;;3.10;91.70;;;;;;5050691;28;19967;-76
2022/03/16 04:19:13;;;;;;;;;;;3.10;91.80;;;;;;5056004;28;19956;-77
2022/03/16 04:21:40;;;;;;;;;;;3.10;91.90;;;;;;5058108;28;19932;-76
2022/03/16 04:24:07;;;;;;;;;;;3.10;92.00;;;;;;5075342;28;20599;-77
2022/03/16 04:26:34;;;;;;;;;;;3.10;92.20;;;;;;5066805;28;19968;-76
2022/03/16 04:29:00;;;;;;;;;;;3.10;92.20;;;;;;5071455;28;19924;-77
2022/03/16 04:31:27;;;;;;;;;;;3.00;92.20;;;;;;5070738;28;19972;-77
2022/03/16 04:33:55;;;;;;;;;;;2.90;91.90;;;;;;5072621;28;19932;-76
2022/03/16 04:36:22;;;;;;;;;;;2.90;91.80;;;;;;5073493;28;19925;-76
2022/03/16 04:38:50;;;;;;;;;;;2.90;91.70;;;;;;5060078;28;19924;-74
2022/03/16 04:41:17;;;;;;;;;;;2.80;91.50;;;;;;5059185;28;19935;-76
2022/03/16 04:43:43;;;;;;;;;;;2.80;91.40;;;;;;5056321;28;19971;-77
2022/03/16 04:46:10;;;;;;;;;;;2.80;91.70;;;;;;5077716;28;19929;-76
2022/03/16 04:48:37;;;;;;;;;;;2.70;91.60;;;;;;5061911;28;19975;-76
2022/03/16 04:51:04;;;;;;;;;;;2.70;91.70;;;;;;5053897;28;19982;-77
2022/03/16 04:53:31;;;;;;;;;;;2.60;92.10;;;;;;5066976;28;19982;-76
2022/03/16 04:55:58;;;;;;;;;;;2.50;91.50;;;;;;5067491;28;19978;-76
2022/03/16 04:58:25;;;;;;;;;;;2.50;91.40;;;;;;5062717;28;19929;-77
2022/03/16 05:00:51;;;;;;;;;;;2.50;91.40;;;;;;5059555;28;19925;-76
2022/03/16 05:03:18;;;;;;;;;;;2.50;91.50;;;;;;5074324;28;19925;-77
2022/03/16 05:05:47;;;;;;;;;;;2.50;91.60;;;;;;5071971;28;19935;-76
2022/03/16 05:08:13;;;;;;;;;;;2.50;91.50;;;;;;5059202;28;19924;-76
2022/03/16 05:10:40;;;;;;;;;;;2.40;91.40;;;;;;5068067;28;19928;-76
2022/03/16 05:13:07;;;;;;;;;;;2.50;91.80;;;;;;5069262;28;19960;-77
2022/03/16 05:15:34;;;;;;;;;;;2.50;91.50;;;;;;5073738;28;19974;-77
2022/03/16 05:18:00;;;;;;;;;;;2.50;91.40;;;;;;5059580;28;19982;-76
2022/03/16 05:20:28;;;;;;;;;;;2.50;91.40;;;;;;5071696;28;19929;-77
2022/03/16 05:22:55;;;;;;;;;;;2.50;91.30;;;;;;5070767;28;20326;-74
2022/03/16 05:25:27;;;;;;;;;;;2.50;91.30;;;;;;5070659;28;19928;-75
2022/03/16 05:27:54;;;;;;;;;;;2.40;91.20;;;;;;5073636;28;19925;-77
2022/03/16 05:30:22;;;;;;;;;;;2.40;91.50;;;;;;5058482;28;19925;-76
2022/03/16 05:32:53;;;;;;;;;;;2.40;91.40;;;;;;5070355;28;19931;-76
2022/03/16 05:35:20;;;;;;;;;;;2.30;91.60;;;;;;5076723;28;19955;-76
2022/03/16 05:37:47;;;;;;;;;;;2.20;91.70;;;;;;5070810;28;20229;-77
2022/03/16 05:40:14;;;;;;;;;;;2.20;91.90;;;;;;5079129;28;19952;-77
2022/03/16 05:42:41;;;;;;;;;;;2.20;91.70;;;;;;5074839;28;19924;-77
2022/03/16 05:45:08;;;;;;;;;;;2.20;91.60;;;;;;5071824;28;19968;-77
2022/03/16 05:47:35;;;;;;;;;;;2.20;91.50;;;;;;5073201;28;20062;-74
2022/03/16 05:50:02;;;;;;;;;;;2.20;91.50;;;;;;5054148;28;19968;-76
2022/03/16 05:52:34;;;;;;;;;;;2.20;91.60;;;;;;5073665;28;19974;-76
2022/03/16 05:55:01;;;;;;;;;;;2.20;91.70;;;;;;5062278;28;20484;-76
2022/03/16 05:57:28;;;;;;;;;;;2.30;91.80;;;;;;5060506;28;19925;-75
2022/03/16 05:59:55;;;;;;;;;;;2.30;92.20;;;;;;5050909;28;19963;-76
2022/03/16 06:02:21;;;;;;;;;;;2.30;92.60;;;;;;5072081;28;19932;-77
2022/03/16 06:04:48;;;;;;;;;;;2.20;92.30;;;;;;5069373;28;20353;-77
2022/03/16 06:07:15;;;;;;;;;;;2.30;92.20;;;;;;5063253;28;19960;-76
2022/03/16 06:09:42;;;;;;;;;;;2.30;92.10;;;;;;5069469;28;19928;-75
2022/03/16 06:12:09;;;;;;;;;;;2.30;91.80;;;;;;5062377;28;19925;-76
2022/03/16 06:14:35;;;;;;;;;;;2.20;91.50;;;;;;5059545;28;19924;-77
2022/03/16 06:17:02;;;;;;;;;;;2.20;91.50;;;;;;5067117;28;19928;-76
2022/03/16 06:19:29;;;;;;;;;;;2.20;91.50;;;;;;5070534;28;19925;-76
2022/03/16 06:21:56;;;;;;;;;;;2.30;91.60;;;;;;5059059;28;19928;-75
2022/03/16 06:24:23;;;;;;;;;;;2.30;91.70;;;;;;5076721;28;19951;-75
2022/03/16 06:26:50;;;;;;;;;;;2.30;92.00;;;;;;5068588;28;19929;-75
2022/03/16 06:29:17;;;;;;;;;;;2.30;91.60;;;;;;5078738;28;19951;-76
2022/03/16 06:31:43;;;;;;;;;;;2.30;91.40;;;;;;5050815;28;20011;-77
2022/03/16 06:34:10;;;;;;;;;;;2.40;91.50;;;;;;5061384;28;20012;-77
2022/03/16 06:36:37;;;;;;;;;;;2.40;91.50;;;;;;5061244;28;19929;-77
2022/03/16 06:39:04;;;;;;;;;;;2.50;91.60;;;;;;5071545;28;19932;-77
2022/03/16 06:41:30;;;;;;;;;;;2.60;91.90;;;;;;5064649;28;19925;-77
2022/03/16 06:43:57;;;;;;;;;;;2.70;92.00;;;;;;5052887;28;20304;-76
2022/03/16 06:46:24;;;;;;;;;;;2.80;92.20;;;;;;5077638;28;19994;-76
2022/03/16 06:48:51;;;;;;;;;;;2.90;92.00;;;;;;5082153;28;19924;-76
2022/03/16 06:51:17;;;;;;;;;;;3.00;92.00;;;;;;5072346;28;19929;-76
2022/03/16 06:53:44;;;;;;;;;;;3.20;92.30;;;;;;5071597;28;19924;-75
2022/03/16 06:56:11;;;;;;;;;;;3.40;92.70;;;;;;5070638;28;19925;-76
2022/03/16 06:58:37;;;;;;;;;;;3.60;93.20;;;;;;5077162;28;19929;-76
2022/03/16 07:01:04;;;;;;;;;;;3.80;93.70;;;;;;5069721;28;19924;-75
2022/03/16 07:03:31;;;;;;;;;;;4.00;93.70;;;;;;5068728;28;19931;-76
2022/03/16 07:06:00;;;;;;;;;;;4.20;93.90;;;;;;5059725;28;20296;-76
2022/03/16 07:08:27;;;;;;;;;;;4.40;93.90;;;;;;5055416;28;19982;-75
2022/03/16 07:10:54;;;;;;;;;;;4.50;93.90;;;;;;5055022;28;19994;-76
2022/03/16 07:13:21;;;;;;;;;;;4.70;93.70;;;;;;5054274;28;19924;-75
2022/03/16 07:15:48;;;;;;;;;;;4.90;93.70;;;;;;5062725;28;19939;-77
2022/03/16 07:18:16;;;;;;;;;;;5.00;93.70;;;;;;5072685;28;19937;-76
2022/03/16 07:20:42;;;;;;;;;;;5.10;93.80;;;;;;5054467;28;19924;-77
2022/03/16 07:23:10;;;;;;;;;;;5.20;93.70;;;;;;5064168;28;20335;-76
2022/03/16 07:25:38;;;;;;;;;;;5.30;93.30;;;;;;5075678;28;19947;-77
2022/03/16 07:28:05;;;;;;;;;;;5.40;93.20;;;;;;5076025;28;19947;-76
2022/03/16 07:30:32;;;;;;;;;;;5.50;93.00;;;;;;5075351;28;19932;-75
2022/03/16 07:32:59;;;;;;;;;;;5.50;93.00;;;;;;5052055;28;19968;-76
2022/03/16 07:35:29;;;;;;;;;;;5.60;92.90;;;;;;5066647;28;19975;-76
2022/03/16 07:37:56;;;;;;;;;;;5.70;93.20;;;;;;5065445;28;19929;-77
2022/03/16 07:40:23;;;;;;;;;;;5.80;93.20;;;;;;5068205;28;19993;-76
2022/03/16 07:42:51;;;;;;;;;;;5.90;93.40;;;;;;5073692;28;19929;-75
2022/03/16 07:45:18;;;;;;;;;;;5.90;93.20;;;;;;5065185;28;19963;-77
2022/03/16 07:47:46;;;;;;;;;;;6.10;93.20;;;;;;5057570;28;19936;-75
2022/03/16 07:50:13;;;;;;;;;;;6.20;93.20;;;;;;5069801;28;19928;-76
2022/03/16 07:52:40;;;;;;;;;;;6.30;93.00;;;;;;5070239;28;19928;-77
2022/03/16 07:55:07;;;;;;;;;;;6.40;93.10;;;;;;5073555;28;19959;-77
2022/03/16 07:57:35;;;;;;;;;;;6.50;92.90;;;;;;5072555;28;19932;-77
2022/03/16 08:00:05;;;;;;;;;;;6.60;92.80;;;;;;5069747;28;19986;-77
2022/03/16 08:02:32;;;;;;;;;;;6.80;92.90;;;;;;5071986;28;19928;-76
2022/03/16 08:05:00;;;;;;;;;;;6.90;92.70;;;;;;5075743;28;19931;-75
2022/03/16 08:07:28;;;;;;;;;;;7.00;92.50;;;;;;5062393;28;20389;-76
2022/03/16 08:09:55;;;;;;;;;;;7.20;92.10;;;;;;5074080;28;19928;-78
2022/03/16 08:12:22;;;;;;;;;;;7.30;91.90;;;;;;5075851;28;19959;-77
2022/03/16 08:14:48;;;;;;;;;;;7.40;91.70;;;;;;5075881;28;19935;-76
2022/03/16 08:17:16;;;;;;;;;;;7.50;91.70;;;;;;5064053;28;20392;-75
2022/03/16 08:19:43;;;;;;;;;;;7.70;91.60;;;;;;5079837;28;19924;-76
2022/03/16 08:22:09;;;;;;;;;;;7.80;91.20;;;;;;5062877;28;20292;-77
2022/03/16 08:24:36;;;;;;;;;;;8.00;91.00;;;;;;5076248;28;19929;-77
2022/03/16 08:27:17;;;;;;;;;;;8.10;90.30;;;;;;5062033;28;19925;-77
2022/03/16 08:29:44;;;;;;;;;;;8.30;90.00;;;;;;5072381;28;19924;-77
2022/03/16 08:32:11;;;;;;;;;;;8.40;89.20;;;;;;5074468;28;19966;-77
2022/03/16 08:34:38;;;;;;;;;;;8.50;88.20;;;;;;5076076;28;19928;-76
2022/03/16 08:37:04;;;;;;;;;;;8.60;88.30;;;;;;5060545;28;19935;-77
2022/03/16 08:39:37;;;;;;;;;;;8.70;86.50;;;;;;5072255;28;20384;-75
2022/03/16 08:42:08;;;;;;;;;;;8.90;87.80;;;;;;5078484;28;19924;-75
2022/03/16 08:44:35;;;;;;;;;;;9.00;86.80;;;;;;5064380;28;20406;-76
2022/03/16 08:47:02;;;;;;;;;;;9.10;86.00;;;;;;5079549;28;19952;-75
2022/03/16 08:49:29;;;;;;;;;;;9.20;82.80;;;;;;5075825;28;19982;-77
2022/03/16 08:51:57;;;;;;;;;;;9.40;85.00;;;;;;5072408;28;19932;-77
2022/03/16 08:54:24;;;;;;;;;;;9.50;84.60;;;;;;5057970;28;19990;-77
2022/03/16 08:56:52;;;;;;;;;;;9.50;84.40;;;;;;5065145;28;19932;-77
2022/03/16 08:59:20;;;;;;;;;;;9.70;84.00;;;;;;5072352;28;19946;-75
2022/03/16 09:01:47;;;;;;;;;;;9.70;83.30;;;;;;5056006;28;19925;-76
2022/03/16 09:04:14;;;;;;;;;;;9.80;81.90;;;;;;5069544;28;20031;-76
2022/03/16 09:06:41;;;;;;;;;;;9.80;81.10;;;;;;5067566;28;19925;-76
2022/03/16 09:09:08;;;;;;;;;;;9.90;81.00;;;;;;5057141;28;20400;-75
2022/03/16 09:11:35;;;;;;;;;;;10.00;80.00;;;;;;5071412;28;19924;-77
2022/03/16 09:14:02;;;;;;;;;;;10.20;79.80;;;;;;5062958;28;19929;-78
2022/03/16 09:16:29;;;;;;;;;;;10.30;79.00;;;;;;5069178;28;19932;-76
2022/03/16 09:18:56;;;;;;;;;;;10.50;78.90;;;;;;5068230;28;19929;-78
2022/03/16 09:21:25;;;;;;;;;;;10.60;78.60;;;;;;5067276;28;19979;-77
2022/03/16 09:23:55;;;;;;;;;;;10.70;77.90;;;;;;5074655;28;19960;-77
2022/03/16 09:26:22;;;;;;;;;;;10.80;77.90;;;;;;5069738;28;20303;-76
2022/03/16 09:28:49;;;;;;;;;;;10.90;78.20;;;;;;5075364;28;19940;-77
2022/03/16 09:31:16;;;;;;;;;;;11.00;77.70;;;;;;5062826;28;19924;-76
2022/03/16 09:33:43;;;;;;;;;;;11.10;75.90;;;;;;5080118;28;19924;-77
2022/03/16 09:36:10;;;;;;;;;;;11.20;75.70;;;;;;5075163;28;19928;-77
2022/03/16 09:38:38;;;;;;;;;;;11.30;76.50;;;;;;5084868;28;19925;-76
2022/03/16 09:41:04;;;;;;;;;;;11.40;75.50;;;;;;5072805;28;19924;-76
2022/03/16 09:43:33;;;;;;;;;;;11.50;74.20;;;;;;5073690;28;20399;-76
2022/03/16 09:46:05;;;;;;;;;;;11.60;74.70;;;;;;5073182;28;19929;-76
2022/03/16 09:48:32;;;;;;;;;;;11.60;73.50;;;;;;5073013;28;19924;-76
2022/03/16 09:51:00;;;;;;;;;;;11.80;73.50;;;;;;5078640;28;19974;-76
2022/03/16 09:53:27;;;;;;;;;;;11.80;72.90;;;;;;5063280;28;19925;-77
2022/03/16 09:55:55;;;;;;;;;;;11.80;72.10;;;;;;5077767;28;19925;-76
2022/03/16 09:58:21;;;;;;;;;;;11.90;70.80;;;;;;5063018;28;19932;-76
2022/03/16 10:00:49;;;;;;;;;;;11.90;71.10;;;;;;5054384;28;20385;-77
2022/03/16 10:03:16;;;;;;;;;;;12.10;69.70;;;;;;5077889;28;19925;-76
2022/03/16 10:05:46;;;;;;;;;;;12.20;69.30;;;;;;5077165;28;19924;-76
2022/03/16 10:08:14;;;;;;;;;;;12.40;69.40;;;;;;5066332;28;19955;-77
2022/03/16 10:13:26;;;;;;;;;;;12.80;68.20;;;;;;5075697;28;20442;-77
2022/03/16 10:16:07;;;;;;;;;;;12.80;66.30;;;;;;5068246;28;20384;-77
2022/03/16 10:18:35;;;;;;;;;;;12.80;65.90;;;;;;5060591;28;19939;-78
2022/03/16 10:21:07;;;;;;;;;;;12.90;65.40;;;;;;5078292;28;19974;-75
2022/03/16 10:23:35;;;;;;;;;;;13.00;63.20;;;;;;5072938;28;19925;-76
2022/03/16 10:26:03;;;;;;;;;;;13.00;62.70;;;;;;5070769;28;19954;-78
2022/03/16 10:28:31;;;;;;;;;;;13.20;62.00;;;;;;5071707;28;19938;-77
2022/03/16 10:31:08;;;;;;;;;;;13.20;61.20;;;;;;5079683;28;20396;-77
2022/03/16 10:33:36;;;;;;;;;;;13.20;61.40;;;;;;5071880;28;19932;-75
2022/03/16 10:36:11;;;;;;;;;;;13.40;61.40;;;;;;5061288;28;19974;-75
2022/03/16 10:38:40;;;;;;;;;;;13.40;60.40;;;;;;5071109;28;20576;-75
2022/03/16 10:46:34;;;;;;;;;;;13.50;62.10;;;;;;5074597;28;19924;-77
2022/03/16 10:46:52;;;;;;;;;;;13.60;59.80;;;;;;5059128;28;20356;-77
2022/03/16 10:49:22;;;;;;;;;;;13.60;61.00;;;;;;5057401;28;19964;-77
2022/03/16 10:52:05;;;;;;;;;;;13.70;60.40;;;;;;5073096;28;20091;-78
2022/03/16 10:54:34;;;;;;;;;;;13.80;60.90;;;;;;5070623;28;20024;-76
2022/03/16 10:57:03;;;;;;;;;;;14.10;60.90;;;;;;5065373;28;19935;-78
2022/03/16 10:59:31;;;;;;;;;;;14.20;58.70;;;;;;5065077;28;19978;-78
2022/03/16 11:02:01;;;;;;;;;;;14.40;59.30;;;;;;5053175;28;19938;-76
2022/03/16 11:04:30;;;;;;;;;;;14.50;59.40;;;;;;5069615;28;19975;-76
2022/03/16 11:06:59;;;;;;;;;;;14.40;58.90;;;;;;5067080;28;19955;-77
2022/03/16 11:09:27;;;;;;;;;;;14.70;59.00;;;;;;5071655;28;19974;-78
2022/03/16 11:14:43;;;;;;;;;;;14.80;57.20;;;;;;5056629;28;19924;-78
2022/03/16 11:17:10;;;;;;;;;;;14.80;57.60;;;;;;5075833;28;20344;-77
2022/03/16 11:19:37;;;;;;;;;;;14.70;57.50;;;;;;5076379;28;19931;-76
2022/03/16 11:22:04;;;;;;;;;;;14.70;57.30;;;;;;5067603;28;20481;-76
2022/03/16 11:24:33;;;;;;;;;;;14.70;56.60;;;;;;5051781;28;20427;-78
2022/03/16 11:27:12;;;;;;;;;;;14.90;57.50;;;;;;5053041;28;19986;-78
2022/03/16 11:29:58;;;;;;;;;;;15.10;57.20;;;;;;5063266;28;19972;-79
2022/03/16 11:32:31;;;;;;;;;;;15.30;57.40;;;;;;5064009;28;19958;-76
2022/03/16 11:34:59;;;;;;;;;;;15.40;55.90;;;;;;5075444;28;19963;-76
2022/03/16 11:37:33;;;;;;;;;;;15.60;57.20;;;;;;5074306;28;20026;-76
2022/03/16 11:40:09;;;;;;;;;;;15.90;57.20;;;;;;5078759;28;19936;-76
2022/03/16 11:42:37;;;;;;;;;;;16.00;54.60;;;;;;5063607;28;19924;-77
2022/03/16 11:45:26;;;;;;;;;;;15.90;53.00;;;;;;5079116;28;19924;-78
2022/03/16 11:47:53;;;;;;;;;;;15.80;53.10;;;;;;5063158;28;19952;-77
2022/03/16 11:50:20;;;;;;;;;;;15.80;54.30;;;;;;5074688;28;19928;-78
2022/03/16 11:53:00;;;;;;;;;;;15.90;54.80;;;;;;5077422;28;20446;-76
2022/03/16 11:55:56;;;;;;;;;;;15.80;53.50;;;;;;5077947;28;19924;-78
2022/03/16 11:58:25;;;;;;;;;;;15.90;54.50;;;;;;5054953;28;19947;-78
2022/03/16 12:01:12;;;;;;;;;;;15.80;54.30;;;;;;5064955;28;19932;-78
2022/03/16 12:03:42;;;;;;;;;;;15.70;54.20;;;;;;5054159;28;19925;-77
2022/03/16 12:06:09;;;;;;;;;;;15.90;54.80;;;;;;5068771;28;19939;-76
2022/03/16 12:08:51;;;;;;;;;;;15.90;53.50;;;;;;5055210;28;19925;-76
2022/03/16 12:14:05;;;;;;;;;;;16.10;53.90;;;;;;5060108;28;19925;-76
2022/03/16 12:16:41;;;;;;;;;;;16.10;53.80;;;;;;5069459;28;20431;-76
2022/03/16 12:19:29;;;;;;;;;;;16.20;53.60;;;;;;5074139;28;19933;-76
2022/03/16 12:21:57;;;;;;;;;;;16.20;54.10;;;;;;5060366;28;20506;-76
2022/03/16 12:30:05;;;;;;;;;;;16.30;53.60;;;;;;5064050;28;19947;-75
2022/03/16 12:32:35;;;;;;;;;;;16.10;54.10;;;;;;5064310;28;19975;-76
2022/03/16 12:35:05;;;;;;;;;;;16.10;54.00;;;;;;5064513;28;19972;-79
2022/03/16 12:37:32;;;;;;;;;;;16.00;53.40;;;;;;5057869;28;19951;-78
2022/03/16 12:39:59;;;;;;;;;;;16.10;54.90;;;;;;5065090;28;19933;-78
2022/03/16 12:42:31;;;;;;;;;;;16.00;54.50;;;;;;5071080;28;19928;-78
2022/03/16 12:45:19;;;;;;;;;;;16.10;55.40;;;;;;5064104;28;19925;-77
2022/03/16 12:47:54;;;;;;;;;;;16.30;54.90;;;;;;5061379;28;20376;-76
2022/03/16 12:50:25;;;;;;;;;;;16.40;55.00;;;;;;5063461;28;19928;-77
2022/03/16 12:52:52;;;;;;;;;;;16.60;54.50;;;;;;5061841;28;20599;-76
2022/03/16 12:55:19;;;;;;;;;;;16.80;53.70;;;;;;5065746;28;19940;-76
2022/03/16 12:57:55;;;;;;;;;;;16.90;53.70;;;;;;5062989;28;19936;-78
2022/03/16 13:00:31;;;;;;;;;;;16.80;52.00;;;;;;5061905;28;20773;-78
2022/03/16 13:03:13;;;;;;;;;;;16.90;52.10;;;;;;5068406;28;19924;-77
2022/03/16 13:05:40;;;;;;;;;;;16.90;53.40;;;;;;5062279;28;19978;-79
2022/03/16 13:08:07;;;;;;;;;;;16.80;54.40;;;;;;5063298;28;19951;-75
2022/03/16 13:11:14;;;;;;;;;;;16.80;53.40;;;;;;5056247;28;19987;-76
2022/03/16 13:13:22;;;;;;;;;;;16.90;53.50;;;;;;5060406;28;20012;-76
2022/03/16 13:15:50;;;;;;;;;;;17.00;51.80;;;;;;5058566;28;19960;-75
2022/03/16 13:18:33;;;;;;;;;;;17.20;52.30;;;;;;5061467;28;19960;-76
2022/03/16 13:20:59;;;;;;;;;;;17.30;51.90;;;;;;5059990;28;20018;-76
2022/03/16 13:23:34;;;;;;;;;;;17.40;51.50;;;;;;5065454;28;19924;-75
2022/03/16 13:26:10;;;;;;;;;;;17.50;52.30;;;;;;5072680;28;20306;-79
2022/03/16 13:28:38;;;;;;;;;;;17.60;50.70;;;;;;5069010;28;19924;-79
2022/03/16 13:31:05;;;;;;;;;;;17.40;50.00;;;;;;5066102;28;19964;-79
2022/03/16 13:33:32;;;;;;;;;;;17.30;51.40;;;;;;5063622;28;19959;-77
2022/03/16 13:36:09;;;;;;;;;;;17.30;51.50;;;;;;5062682;28;20347;-79
2022/03/16 13:38:37;;;;;;;;;;;17.10;51.20;;;;;;5074941;28;19924;-79
2022/03/16 13:41:14;;;;;;;;;;;17.00;51.40;;;;;;5060026;28;19928;-76
2022/03/16 13:43:41;;;;;;;;;;;16.90;52.60;;;;;;5057843;28;19986;-75
2022/03/16 13:46:13;;;;;;;;;;;16.70;52.50;;;;;;5074896;28;19982;-79
2022/03/16 13:48:42;;;;;;;;;;;16.80;53.70;;;;;;5072026;28;19928;-76
2022/03/16 13:51:11;;;;;;;;;;;16.90;53.40;;;;;;5058646;28;20309;-79
2022/03/16 13:53:43;;;;;;;;;;;17.10;53.00;;;;;;5058049;28;20293;-76
2022/03/16 13:56:18;;;;;;;;;;;17.10;51.50;;;;;;5074742;28;19925;-76
2022/03/16 13:58:53;;;;;;;;;;;17.00;52.60;;;;;;5074188;28;19933;-79
2022/03/16 14:01:21;;;;;;;;;;;17.00;52.40;;;;;;5062643;28;19932;-76
2022/03/16 14:04:00;;;;;;;;;;;17.10;52.70;;;;;;5067766;28;19939;-76
2022/03/16 14:06:35;;;;;;;;;;;17.20;52.80;;;;;;5065479;28;19971;-79
2022/03/16 14:09:02;;;;;;;;;;;17.40;51.90;;;;;;5069183;28;19924;-77
2022/03/16 14:11:32;;;;;;;;;;;17.60;52.10;;;;;;5072557;28;20277;-79
2022/03/16 14:14:09;;;;;;;;;;;17.70;50.60;;;;;;5077038;28;19924;-75
2022/03/16 14:16:37;;;;;;;;;;;17.60;49.90;;;;;;5056575;28;19966;-75
2022/03/16 14:19:23;;;;;;;;;;;17.40;50.10;;;;;;5075248;28;19955;-75
2022/03/16 14:21:49;;;;;;;;;;;17.30;50.60;;;;;;5078178;28;19936;-78
2022/03/16 14:24:16;;;;;;;;;;;17.30;50.80;;;;;;5063197;28;19971;-76
2022/03/16 14:26:43;;;;;;;;;;;17.30;51.80;;;;;;5062546;28;19928;-78
2022/03/16 14:29:15;;;;;;;;;;;17.40;51.00;;;;;;5069452;28;20616;-78
2022/03/16 14:31:43;;;;;;;;;;;17.60;51.60;;;;;;5086927;28;19970;-76
2022/03/16 14:34:10;;;;;;;;;;;17.50;49.60;;;;;;5078601;28;19940;-75
2022/03/16 14:36:37;;;;;;;;;;;17.60;49.50;;;;;;5068176;28;19928;-76
2022/03/16 14:39:24;;;;;;;;;;;17.40;49.60;;;;;;5066210;28;20004;-75
2022/03/16 14:41:53;;;;;;;;;;;17.50;49.40;;;;;;5064512;28;19951;-76
2022/03/16 14:44:21;;;;;;;;;;;17.50;49.80;;;;;;5068509;28;19936;-79
2022/03/16 14:46:48;;;;;;;;;;;17.40;50.10;;;;;;5065450;28;19960;-76
2022/03/16 14:49:14;;;;;;;;;;;17.50;50.40;;;;;;5072392;28;19943;-76
2022/03/16 14:51:41;;;;;;;;;;;17.50;50.60;;;;;;5064373;28;20419;-76